createdAt,value
2018-12-10T00:00:25.078Z,-426.89
2018-12-10T00:01:25.113Z,-428.17
2018-12-10T00:02:25.180Z,-426.76
2018-12-10T00:03:25.236Z,-424.68
2018-12-10T00:04:25.307Z,-428.61
2018-12-10T00:05:25.354Z,-434.54
2018-12-10T00:06:25.409Z,-429.88
2018-12-10T00:07:25.500Z,-431.69
2018-12-10T00:08:25.562Z,-431.59
2018-12-10T00:09:25.588Z,-430.14
2018-12-10T00:10:25.638Z,-431.22
2018-12-10T00:11:25.686Z,-430.24
2018-12-10T00:12:25.771Z,-431.29
2018-12-10T00:13:25.824Z,-432.43
2018-12-10T00:14:25.865Z,-429.03
2018-12-10T00:15:25.938Z,-432.32
2018-12-10T00:16:26.012Z,-432.83
2018-12-10T00:17:26.138Z,-431.78
2018-12-10T00:18:26.117Z,-430.48
2018-12-10T00:19:26.166Z,-432.07
2018-12-10T00:20:26.207Z,-430.21
2018-12-10T00:21:26.282Z,-433.14
2018-12-10T00:22:26.361Z,-429.04
2018-12-10T00:23:26.386Z,-431.59
2018-12-10T00:24:26.458Z,-431.45
2018-12-10T00:25:26.576Z,-431.39
2018-12-10T00:26:26.552Z,-432.68
2018-12-10T00:27:26.643Z,-429.81
2018-12-10T00:28:26.905Z,-432.44
2018-12-10T00:29:26.727Z,-429.67
2018-12-10T00:30:26.795Z,-431.13
2018-12-10T00:31:26.860Z,-427.81
2018-12-10T00:32:26.927Z,-430.79
2018-12-10T00:33:26.989Z,-431.62
2018-12-10T00:34:27.033Z,-428.79
2018-12-10T00:35:27.081Z,-429.41
2018-12-10T00:36:28.093Z,-431.22
2018-12-10T00:37:27.236Z,-429.69
2018-12-10T00:38:27.260Z,-429.54
2018-12-10T00:39:27.339Z,-427.00
2018-12-10T00:40:27.423Z,-428.09
2018-12-10T00:41:27.473Z,-432.03
2018-12-10T00:42:27.583Z,-432.41
2018-12-10T00:43:27.595Z,-432.91
2018-12-10T00:44:27.642Z,-434.26
2018-12-10T00:45:27.717Z,-432.10
2018-12-10T00:46:27.768Z,-432.59
2018-12-10T00:47:27.829Z,-432.13
2018-12-10T00:48:27.881Z,-434.20
2018-12-10T00:49:27.954Z,-433.51
2018-12-10T00:50:28.036Z,-431.14
2018-12-10T00:51:28.058Z,-430.18
2018-12-10T00:52:28.130Z,-430.90
2018-12-10T00:53:28.153Z,-434.45
2018-12-10T00:54:28.219Z,-430.58
2018-12-10T00:55:28.276Z,-430.84
2018-12-10T00:56:28.321Z,-431.74
2018-12-10T00:57:28.418Z,-431.36
2018-12-10T00:58:28.496Z,-436.98
2018-12-10T00:59:28.498Z,-430.16
2018-12-10T01:00:28.572Z,-433.06
2018-12-10T01:01:28.614Z,-430.68
2018-12-10T01:02:28.686Z,-432.82
2018-12-10T01:03:28.743Z,-433.56
2018-12-10T01:04:28.800Z,-433.33
2018-12-10T01:05:28.839Z,-432.73
2018-12-10T01:06:28.921Z,-434.69
2018-12-10T01:07:28.966Z,-437.37
2018-12-10T01:08:28.996Z,-434.25
2018-12-10T01:09:29.071Z,-437.13
2018-12-10T01:10:29.125Z,-435.67
2018-12-10T01:11:29.164Z,-436.47
2018-12-10T01:12:29.464Z,-435.76
2018-12-10T01:13:29.287Z,-434.90
2018-12-10T01:14:29.380Z,-436.29
2018-12-10T01:15:29.401Z,-435.77
2018-12-10T01:16:29.462Z,-433.33
2018-12-10T01:17:29.518Z,-433.70
2018-12-10T01:18:29.565Z,-433.14
2018-12-10T01:19:29.629Z,-431.98
2018-12-10T01:20:29.670Z,-431.94
2018-12-10T01:21:29.742Z,-436.08
2018-12-10T01:22:29.820Z,-434.11
2018-12-10T01:23:29.912Z,-434.34
2018-12-10T01:24:29.903Z,-434.45
2018-12-10T01:25:29.946Z,-433.96
2018-12-10T01:26:30.004Z,-436.12
2018-12-10T01:27:30.093Z,-436.17
2018-12-10T01:28:30.131Z,-433.59
2018-12-10T01:29:30.166Z,-433.49
2018-12-10T01:30:30.237Z,-435.07
2018-12-10T01:31:30.344Z,-428.91
2018-12-10T01:32:30.368Z,-437.00
2018-12-10T01:33:30.410Z,-435.61
2018-12-10T01:34:30.452Z,-432.58
2018-12-10T01:35:30.521Z,-430.99
2018-12-10T01:36:30.596Z,-431.32
2018-12-10T01:37:30.651Z,-434.84
2018-12-10T01:38:30.683Z,-434.13
2018-12-10T01:39:30.768Z,-433.23
2018-12-10T01:40:30.789Z,-432.79
2018-12-10T01:41:31.088Z,-436.85
2018-12-10T01:42:31.057Z,-434.21
2018-12-10T01:43:31.087Z,-432.63
2018-12-10T01:44:31.140Z,-435.09
2018-12-10T01:45:31.212Z,-434.38
2018-12-10T01:46:31.275Z,-431.82
2018-12-10T01:47:31.368Z,-433.03
2018-12-10T01:48:31.358Z,-433.31
2018-12-10T01:49:31.416Z,-432.10
2018-12-10T01:50:31.472Z,-433.10
2018-12-10T01:51:31.537Z,-434.88
2018-12-10T01:52:31.618Z,-431.33
2018-12-10T01:53:31.643Z,-433.21
2018-12-10T01:54:31.714Z,-431.37
2018-12-10T01:55:31.777Z,-428.94
2018-12-10T01:56:31.884Z,-434.63
2018-12-10T01:57:31.893Z,-433.69
2018-12-10T01:58:31.909Z,-433.59
2018-12-10T01:59:31.991Z,-432.37
2018-12-10T02:00:32.065Z,-430.32
2018-12-10T02:01:32.105Z,-457.39
2018-12-10T02:02:32.175Z,-460.51
2018-12-10T02:03:32.232Z,-461.55
2018-12-10T02:04:32.331Z,-458.37
2018-12-10T02:05:32.333Z,-457.37
2018-12-10T02:06:32.393Z,-432.44
2018-12-10T02:07:32.447Z,-456.47
2018-12-10T02:08:32.507Z,-460.91
2018-12-10T02:09:32.568Z,-457.49
2018-12-10T02:10:32.602Z,-459.11
2018-12-10T02:11:32.675Z,-460.75
2018-12-10T02:12:32.767Z,-458.32
2018-12-10T02:13:32.772Z,-458.81
2018-12-10T02:14:32.842Z,-457.90
2018-12-10T02:15:32.906Z,-458.25
2018-12-10T02:16:32.944Z,-460.07
2018-12-10T02:17:33.034Z,-459.23
2018-12-10T02:18:33.075Z,-459.80
2018-12-10T02:19:33.115Z,-461.31
2018-12-10T02:20:33.239Z,-461.47
2018-12-10T02:21:33.243Z,-458.13
2018-12-10T02:22:33.303Z,-458.76
2018-12-10T02:23:33.356Z,-457.63
2018-12-10T02:24:33.428Z,-456.85
2018-12-10T02:25:33.475Z,-461.57
2018-12-10T02:26:33.553Z,-456.31
2018-12-10T02:27:33.639Z,-456.58
2018-12-10T02:28:33.677Z,-460.18
2018-12-10T02:29:33.751Z,-459.85
2018-12-10T02:30:33.800Z,-461.05
2018-12-10T02:31:33.839Z,-458.96
2018-12-10T02:32:33.931Z,-458.68
2018-12-10T02:33:34.089Z,-459.98
2018-12-10T02:34:34.010Z,-461.86
2018-12-10T02:35:34.097Z,-463.59
2018-12-10T02:36:34.158Z,-460.94
2018-12-10T02:37:34.237Z,-459.83
2018-12-10T02:38:34.263Z,-461.97
2018-12-10T02:39:34.303Z,-462.66
2018-12-10T02:40:34.352Z,-462.65
2018-12-10T02:41:34.427Z,-461.60
2018-12-10T02:42:34.500Z,-463.02
2018-12-10T02:43:34.536Z,-463.54
2018-12-10T02:44:34.618Z,-463.68
2018-12-10T02:45:34.697Z,-463.40
2018-12-10T02:46:34.708Z,-462.79
2018-12-10T02:47:34.801Z,-462.49
2018-12-10T02:48:34.828Z,-461.46
2018-12-10T02:49:34.879Z,-463.43
2018-12-10T02:50:34.954Z,-465.66
2018-12-10T02:51:35.009Z,-463.07
2018-12-10T02:52:35.184Z,-464.11
2018-12-10T02:53:35.593Z,-464.98
2018-12-10T02:54:35.159Z,-464.12
2018-12-10T02:55:35.223Z,-464.34
2018-12-10T02:56:35.320Z,-462.23
2018-12-10T02:57:35.368Z,-462.61
2018-12-10T02:58:35.426Z,-462.67
2018-12-10T02:59:35.476Z,-461.23
2018-12-10T03:00:35.522Z,-461.15
2018-12-10T03:01:35.638Z,-457.91
2018-12-10T03:02:35.678Z,-458.68
2018-12-10T03:03:35.737Z,-455.69
2018-12-10T03:04:35.750Z,-460.92
2018-12-10T03:05:35.816Z,-460.06
2018-12-10T03:06:35.893Z,-461.94
2018-12-10T03:07:35.970Z,-460.27
2018-12-10T03:08:36.027Z,-463.14
2018-12-10T03:09:36.085Z,-462.40
2018-12-10T03:10:36.225Z,-461.80
2018-12-10T03:11:36.204Z,-460.14
2018-12-10T03:12:36.261Z,-463.30
2018-12-10T03:13:36.493Z,-460.04
2018-12-10T03:14:36.362Z,-460.58
2018-12-10T03:15:36.439Z,-463.71
2018-12-10T03:16:36.494Z,-464.32
2018-12-10T03:17:36.546Z,-466.44
2018-12-10T03:18:36.694Z,-464.37
2018-12-10T03:19:36.638Z,-463.61
2018-12-10T03:20:36.700Z,-463.83
2018-12-10T03:21:36.778Z,-463.97
2018-12-10T03:22:36.834Z,-463.30
2018-12-10T03:23:36.910Z,-464.04
2018-12-10T03:24:36.930Z,-461.39
2018-12-10T03:25:36.987Z,-463.00
2018-12-10T03:26:37.114Z,-462.54
2018-12-10T03:27:37.120Z,-463.81
2018-12-10T03:28:37.185Z,-462.99
2018-12-10T03:29:37.226Z,-464.65
2018-12-10T03:30:37.304Z,-462.23
2018-12-10T03:31:37.360Z,-460.20
2018-12-10T03:32:37.416Z,-460.33
2018-12-10T03:33:37.473Z,-460.88
2018-12-10T03:34:37.606Z,-464.09
2018-12-10T03:35:37.567Z,-464.05
2018-12-10T03:36:37.646Z,-462.29
2018-12-10T03:37:37.700Z,-460.85
2018-12-10T03:38:37.766Z,-461.46
2018-12-10T03:39:37.809Z,-459.21
2018-12-10T03:40:37.867Z,-459.58
2018-12-10T03:41:37.961Z,-460.98
2018-12-10T03:42:38.031Z,-463.29
2018-12-10T03:43:38.112Z,-458.58
2018-12-10T03:44:38.101Z,-462.69
2018-12-10T03:45:38.179Z,-460.44
2018-12-10T03:46:38.233Z,-460.92
2018-12-10T03:47:38.299Z,-462.34
2018-12-10T03:48:38.351Z,-463.29
2018-12-10T03:49:38.408Z,-461.88
2018-12-10T03:50:38.475Z,-461.47
2018-12-10T03:51:38.688Z,-463.71
2018-12-10T03:52:38.581Z,-462.66
2018-12-10T03:53:38.675Z,-461.34
2018-12-10T03:54:38.690Z,-462.47
2018-12-10T03:55:38.747Z,-463.87
2018-12-10T03:56:38.840Z,-461.38
2018-12-10T03:57:38.887Z,-462.22
2018-12-10T03:58:38.962Z,-464.75
2018-12-10T03:59:39.066Z,-462.23
2018-12-10T04:00:39.068Z,-461.54
2018-12-10T04:01:39.166Z,-460.88
2018-12-10T04:02:39.163Z,-461.03
2018-12-10T04:03:39.238Z,-462.80
2018-12-10T04:04:39.301Z,-461.03
2018-12-10T04:05:39.336Z,-461.06
2018-12-10T04:06:39.662Z,-465.27
2018-12-10T04:07:39.497Z,-461.74
2018-12-10T04:08:39.528Z,-459.95
2018-12-10T04:09:39.555Z,-461.32
2018-12-10T04:10:39.616Z,-461.75
2018-12-10T04:11:39.726Z,-461.74
2018-12-10T04:12:39.724Z,-463.07
2018-12-10T04:13:39.800Z,-461.31
2018-12-10T04:14:39.842Z,-461.83
2018-12-10T04:15:39.951Z,-463.25
2018-12-10T04:16:40.020Z,-462.38
2018-12-10T04:17:40.030Z,-462.78
2018-12-10T04:18:40.096Z,-459.84
2018-12-10T04:19:40.153Z,-461.97
2018-12-10T04:20:40.193Z,-458.93
2018-12-10T04:21:40.283Z,-462.02
2018-12-10T04:22:40.324Z,-460.37
2018-12-10T04:23:40.396Z,-459.18
2018-12-10T04:24:40.506Z,-458.24
2018-12-10T04:25:40.477Z,-457.29
2018-12-10T04:26:40.553Z,-457.88
2018-12-10T04:27:40.634Z,-456.61
2018-12-10T04:28:40.663Z,-456.97
2018-12-10T04:29:40.707Z,-459.60
2018-12-10T04:30:40.761Z,-459.23
2018-12-10T04:31:40.836Z,-461.48
2018-12-10T04:32:41.017Z,-456.87
2018-12-10T04:33:40.959Z,-458.09
2018-12-10T04:34:41.009Z,-457.39
2018-12-10T04:35:41.081Z,-457.32
2018-12-10T04:36:41.137Z,-457.61
2018-12-10T04:37:41.194Z,-456.02
2018-12-10T04:38:41.276Z,-460.40
2018-12-10T04:39:41.294Z,-457.95
2018-12-10T04:40:41.409Z,-459.29
2018-12-10T04:41:41.408Z,-458.47
2018-12-10T04:42:41.491Z,-455.46
2018-12-10T04:43:41.532Z,-457.08
2018-12-10T04:44:41.567Z,-459.38
2018-12-10T04:45:41.628Z,-454.85
2018-12-10T04:46:41.712Z,-428.39
2018-12-10T04:47:41.763Z,-429.97
2018-12-10T04:48:41.856Z,-430.27
2018-12-10T04:49:41.835Z,-429.71
2018-12-10T04:50:41.891Z,-427.10
2018-12-10T04:51:41.982Z,-431.66
2018-12-10T04:52:42.042Z,-429.85
2018-12-10T04:53:42.119Z,-431.15
2018-12-10T04:54:42.139Z,-435.55
2018-12-10T04:55:42.191Z,-431.89
2018-12-10T04:56:42.296Z,-431.85
2018-12-10T04:57:42.379Z,-431.39
2018-12-10T04:58:42.385Z,-432.59
2018-12-10T04:59:42.424Z,-434.64
2018-12-10T05:00:42.474Z,-434.79
2018-12-10T05:01:42.572Z,-435.68
2018-12-10T05:02:42.611Z,-431.21
2018-12-10T05:03:42.671Z,-431.82
2018-12-10T05:04:42.717Z,-432.43
2018-12-10T05:05:42.907Z,-426.86
2018-12-10T05:06:42.886Z,-427.45
2018-12-10T05:07:42.938Z,-431.99
2018-12-10T05:08:42.996Z,-431.02
2018-12-10T05:09:43.060Z,-434.21
2018-12-10T05:10:43.103Z,-427.83
2018-12-10T05:11:43.173Z,-430.68
2018-12-10T05:12:43.232Z,-432.92
2018-12-10T05:13:43.448Z,-427.98
2018-12-10T05:14:43.340Z,-428.94
2018-12-10T05:15:43.401Z,-427.71
2018-12-10T05:16:43.469Z,-428.57
2018-12-10T05:17:43.528Z,-428.19
2018-12-10T05:18:43.813Z,-427.69
2018-12-10T05:19:43.624Z,-429.60
2018-12-10T05:20:43.702Z,-430.94
2018-12-10T05:21:43.814Z,-429.91
2018-12-10T05:22:43.804Z,-430.30
2018-12-10T05:23:43.863Z,-428.17
2018-12-10T05:24:43.923Z,-429.60
2018-12-10T05:25:43.975Z,-429.44
2018-12-10T05:26:44.049Z,-428.72
2018-12-10T05:27:44.126Z,-428.84
2018-12-10T05:28:48.753Z,-430.43
2018-12-10T05:29:44.239Z,-429.68
2018-12-10T05:30:44.288Z,-429.38
2018-12-10T05:31:44.351Z,-428.61
2018-12-10T05:32:44.417Z,-428.07
2018-12-10T05:33:44.482Z,-427.95
2018-12-10T05:34:44.542Z,-429.60
2018-12-10T05:35:44.579Z,-429.40
2018-12-10T05:36:44.636Z,-427.17
2018-12-10T05:37:44.735Z,-430.91
2018-12-10T05:38:44.854Z,-430.09
2018-12-10T05:39:44.832Z,-432.71
2018-12-10T05:40:44.869Z,-432.30
2018-12-10T05:41:44.924Z,-431.08
2018-12-10T05:42:45.003Z,-427.24
2018-12-10T05:43:45.148Z,-427.71
2018-12-10T05:44:45.098Z,-425.52
2018-12-10T05:45:45.153Z,-423.67
2018-12-10T05:46:45.339Z,-428.11
2018-12-10T05:47:45.286Z,-428.10
2018-12-10T05:48:45.375Z,-426.68
2018-12-10T05:49:45.405Z,-426.85
2018-12-10T05:50:45.478Z,-426.80
2018-12-10T05:51:45.526Z,-429.89
2018-12-10T05:52:45.583Z,-427.74
2018-12-10T05:53:45.671Z,-426.89
2018-12-10T05:54:46.854Z,-427.37
2018-12-10T05:55:45.777Z,-426.88
2018-12-10T05:56:45.823Z,-428.21
2018-12-10T05:57:45.879Z,-427.94
2018-12-10T05:58:45.992Z,-429.10
2018-12-10T05:59:45.998Z,-423.63
2018-12-10T06:00:46.844Z,-426.18
2018-12-10T06:01:46.112Z,-425.25
2018-12-10T06:02:47.844Z,-425.10
2018-12-10T06:03:46.848Z,-428.91
2018-12-10T06:04:46.849Z,-428.21
2018-12-10T06:05:46.338Z,-423.98
2018-12-10T06:06:46.844Z,-424.71
2018-12-10T06:07:46.450Z,-424.71
2018-12-10T06:08:47.028Z,-427.80
2018-12-10T06:09:46.596Z,-428.32
2018-12-10T06:10:46.684Z,-424.69
2018-12-10T06:11:46.749Z,-426.03
2018-12-10T06:12:46.749Z,-427.02
2018-12-10T06:13:46.853Z,-427.08
2018-12-10T06:14:46.859Z,-424.35
2018-12-10T06:15:46.931Z,-424.98
2018-12-10T06:16:46.962Z,-427.02
2018-12-10T06:17:47.048Z,-425.25
2018-12-10T06:18:47.153Z,-426.75
2018-12-10T06:19:47.934Z,-427.15
2018-12-10T06:20:47.234Z,-426.27
2018-12-10T06:21:47.299Z,-425.35
2018-12-10T06:22:47.387Z,-426.19
2018-12-10T06:23:47.425Z,-427.06
2018-12-10T06:24:47.444Z,-427.99
2018-12-10T06:25:47.540Z,-427.32
2018-12-10T06:26:47.585Z,-430.98
2018-12-10T06:27:47.726Z,-429.22
2018-12-10T06:28:47.719Z,-429.76
2018-12-10T06:29:47.758Z,-429.95
2018-12-10T06:30:47.822Z,-432.83
2018-12-10T06:31:48.083Z,-429.40
2018-12-10T06:32:47.937Z,-426.96
2018-12-10T06:33:48.015Z,-428.84
2018-12-10T06:34:48.034Z,-428.41
2018-12-10T06:35:48.163Z,-425.45
2018-12-10T06:36:48.155Z,-424.63
2018-12-10T06:37:48.196Z,-422.28
2018-12-10T06:38:48.288Z,-426.52
2018-12-10T06:39:48.311Z,-427.59
2018-12-10T06:40:48.385Z,-431.31
2018-12-10T06:41:48.427Z,-430.53
2018-12-10T06:42:48.478Z,-426.04
2018-12-10T06:43:48.632Z,-430.34
2018-12-10T06:44:48.575Z,-431.57
2018-12-10T06:45:48.659Z,-431.31
2018-12-10T06:46:48.711Z,-432.20
2018-12-10T06:47:48.787Z,-432.01
2018-12-10T06:48:48.880Z,-429.72
2018-12-10T06:49:48.902Z,-433.72
2018-12-10T06:50:48.996Z,-431.59
2018-12-10T06:51:49.037Z,-429.97
2018-12-10T06:52:49.811Z,-430.09
2018-12-10T06:53:50.801Z,-431.62
2018-12-10T06:54:49.188Z,-431.56
2018-12-10T06:55:49.273Z,-429.33
2018-12-10T06:56:49.306Z,-430.25
2018-12-10T06:57:49.367Z,-429.38
2018-12-10T06:58:49.474Z,-430.86
2018-12-10T06:59:49.481Z,-427.96
2018-12-10T07:00:49.649Z,-425.08
2018-12-10T07:01:49.590Z,-433.31
2018-12-10T07:02:49.654Z,-425.96
2018-12-10T07:03:49.733Z,-427.86
2018-12-10T07:04:49.768Z,-427.43
2018-12-10T07:05:49.848Z,-425.16
2018-12-10T07:06:49.909Z,-426.70
2018-12-10T07:07:49.971Z,-429.81
2018-12-10T07:08:50.117Z,-425.82
2018-12-10T07:09:50.049Z,-426.26
2018-12-10T07:10:50.155Z,-430.41
2018-12-10T07:11:50.163Z,-428.23
2018-12-10T07:12:50.225Z,-429.15
2018-12-10T07:13:50.322Z,-433.89
2018-12-10T07:14:50.852Z,-431.90
2018-12-10T07:15:50.416Z,-428.75
2018-12-10T07:16:51.351Z,-432.07
2018-12-10T07:17:50.514Z,-430.33
2018-12-10T07:18:50.605Z,-428.94
2018-12-10T07:19:50.621Z,-429.89
2018-12-10T07:20:50.697Z,-432.72
2018-12-10T07:21:50.749Z,-426.61
2018-12-10T07:22:50.819Z,-428.58
2018-12-10T07:23:51.001Z,-432.56
2018-12-10T07:24:50.961Z,-432.67
2018-12-10T07:25:51.049Z,-434.23
2018-12-10T07:26:51.068Z,-433.36
2018-12-10T07:27:51.125Z,-431.87
2018-12-10T07:28:51.238Z,-429.59
2018-12-10T07:29:51.240Z,-431.05
2018-12-10T07:30:51.316Z,-433.23
2018-12-10T07:31:51.355Z,-431.03
2018-12-10T07:32:51.479Z,-430.63
2018-12-10T07:33:51.626Z,-431.68
2018-12-10T07:34:51.539Z,-424.83
2018-12-10T07:35:51.610Z,-429.91
2018-12-10T07:36:51.672Z,-429.29
2018-12-10T07:37:51.713Z,-429.71
2018-12-10T07:38:51.802Z,-431.14
2018-12-10T07:39:51.821Z,-430.90
2018-12-10T07:40:51.920Z,-430.28
2018-12-10T07:41:52.102Z,-432.10
2018-12-10T07:42:52.040Z,-432.33
2018-12-10T07:43:52.856Z,-432.09
2018-12-10T07:44:52.383Z,-429.51
2018-12-10T07:45:52.217Z,-430.50
2018-12-10T07:46:52.281Z,-430.56
2018-12-10T07:47:52.316Z,-430.53
2018-12-10T07:48:52.854Z,-433.36
2018-12-10T07:49:52.469Z,-432.18
2018-12-10T07:50:52.482Z,-427.01
2018-12-10T07:51:52.536Z,-432.61
2018-12-10T07:52:52.613Z,-430.41
2018-12-10T07:53:53.356Z,-431.34
2018-12-10T07:54:52.702Z,-430.43
2018-12-10T07:55:52.797Z,-429.15
2018-12-10T07:56:52.820Z,-428.07
2018-12-10T07:57:53.993Z,-429.80
2018-12-10T07:58:52.950Z,-427.73
2018-12-10T07:59:52.976Z,-428.43
2018-12-10T08:00:53.052Z,-426.16
2018-12-10T08:01:53.101Z,-424.66
2018-12-10T08:02:53.181Z,-423.42
2018-12-10T08:03:53.255Z,-422.41
2018-12-10T08:04:53.278Z,-427.40
2018-12-10T08:05:53.374Z,-427.34
2018-12-10T08:06:53.430Z,-427.83
2018-12-10T08:07:53.451Z,-427.05
2018-12-10T08:08:53.548Z,-424.66
2018-12-10T08:09:53.560Z,-427.08
2018-12-10T08:10:53.668Z,-430.01
2018-12-10T08:11:53.688Z,-433.24
2018-12-10T08:12:53.743Z,-430.79
2018-12-10T08:13:53.843Z,-432.38
2018-12-10T08:14:53.982Z,-428.09
2018-12-10T08:15:54.003Z,-430.53
2018-12-10T08:16:54.040Z,-432.87
2018-12-10T08:17:54.095Z,-431.01
2018-12-10T08:18:54.209Z,-429.96
2018-12-10T08:19:54.215Z,-431.80
2018-12-10T08:21:01.974Z,-430.99
2018-12-10T08:21:55.342Z,-432.31
2018-12-10T08:22:54.549Z,-432.67
2018-12-10T08:23:54.480Z,-432.32
2018-12-10T08:24:54.510Z,-434.09
2018-12-10T08:25:54.586Z,-430.04
2018-12-10T08:26:54.632Z,-431.99
2018-12-10T08:27:54.702Z,-432.46
2018-12-10T08:28:58.586Z,-430.74
2018-12-10T08:29:55.835Z,-427.06
2018-12-10T08:30:54.939Z,-431.05
2018-12-10T08:31:54.936Z,-432.06
2018-12-10T08:32:54.977Z,-432.93
2018-12-10T08:33:55.091Z,-431.73
2018-12-10T08:34:55.100Z,-432.15
2018-12-10T08:35:55.173Z,-434.69
2018-12-10T08:36:55.733Z,-432.32
2018-12-10T08:37:55.309Z,-434.69
2018-12-10T08:38:55.446Z,-431.50
2018-12-10T08:39:55.461Z,-427.18
2018-12-10T08:40:55.478Z,-428.48
2018-12-10T08:41:55.515Z,-431.84
2018-12-10T08:42:55.565Z,-434.52
2018-12-10T08:43:55.665Z,-431.99
2018-12-10T08:44:55.711Z,-430.75
2018-12-10T08:45:55.783Z,-429.78
2018-12-10T08:46:55.832Z,-432.44
2018-12-10T08:47:55.944Z,-431.08
2018-12-10T08:48:55.969Z,-431.79
2018-12-10T08:49:56.009Z,-431.62
2018-12-10T08:50:56.084Z,-434.91
2018-12-10T08:51:56.132Z,-433.77
2018-12-10T08:52:56.209Z,-430.14
2018-12-10T08:53:56.281Z,-431.88
2018-12-10T08:54:56.300Z,-431.45
2018-12-10T08:55:56.478Z,-433.81
2018-12-10T08:56:56.410Z,-434.68
2018-12-10T08:57:56.470Z,-433.20
2018-12-10T08:58:56.563Z,-430.40
2018-12-10T08:59:56.608Z,-432.59
2018-12-10T09:00:56.713Z,-430.79
2018-12-10T09:01:56.739Z,-433.84
2018-12-10T09:02:56.808Z,-430.91
2018-12-10T09:03:57.023Z,-432.70
2018-12-10T09:04:56.946Z,-433.43
2018-12-10T09:05:57.028Z,-435.37
2018-12-10T09:06:57.064Z,-432.77
2018-12-10T09:07:57.145Z,-431.26
2018-12-10T09:08:57.226Z,-432.44
2018-12-10T09:09:57.266Z,-436.47
2018-12-10T09:10:57.335Z,-432.97
2018-12-10T09:11:57.448Z,-431.96
2018-12-10T09:12:57.440Z,-434.01
2018-12-10T09:13:57.544Z,-432.25
2018-12-10T09:14:57.586Z,-433.75
2018-12-10T09:15:57.655Z,-434.07
2018-12-10T09:16:57.694Z,-432.34
2018-12-10T09:17:57.753Z,-433.40
2018-12-10T09:18:57.870Z,-430.51
2018-12-10T09:19:57.942Z,-432.48
2018-12-10T09:20:58.046Z,-434.84
2018-12-10T09:21:58.045Z,-431.99
2018-12-10T09:22:58.114Z,-432.07
2018-12-10T09:23:58.180Z,-432.11
2018-12-10T09:24:58.254Z,-430.11
2018-12-10T09:25:58.314Z,-430.56
2018-12-10T09:26:58.377Z,-431.40
2018-12-10T09:27:58.458Z,-431.29
2018-12-10T09:28:58.643Z,-433.04
2018-12-10T09:29:58.596Z,-429.24
2018-12-10T09:30:58.674Z,-432.86
2018-12-10T09:31:58.693Z,-432.63
2018-12-10T09:32:58.750Z,-433.64
2018-12-10T09:33:58.822Z,-431.00
2018-12-10T09:34:58.917Z,-428.46
2018-12-10T09:35:58.984Z,-433.20
2018-12-10T09:36:59.158Z,-434.18
2018-12-10T09:37:59.078Z,-431.57
2018-12-10T09:38:59.176Z,-435.39
2018-12-10T09:39:59.227Z,-434.65
2018-12-10T09:40:59.289Z,-433.50
2018-12-10T09:41:59.330Z,-433.49
2018-12-10T09:42:59.389Z,-432.80
2018-12-10T09:43:59.448Z,-430.20
2018-12-10T09:44:59.562Z,-431.31
2018-12-10T09:45:59.571Z,-434.65
2018-12-10T09:46:59.638Z,-435.37
2018-12-10T09:47:59.669Z,-434.22
2018-12-10T09:48:59.730Z,-435.33
2018-12-10T09:49:59.828Z,-434.36
2018-12-10T09:50:59.869Z,-435.91
2018-12-10T09:51:59.893Z,-436.44
2018-12-10T09:52:59.991Z,-435.79
2018-12-10T09:54:00.011Z,-433.48
2018-12-10T09:55:00.107Z,-431.27
2018-12-10T09:56:00.176Z,-434.76
2018-12-10T09:57:00.214Z,-436.29
2018-12-10T09:58:00.262Z,-433.35
2018-12-10T09:59:00.326Z,-433.37
2018-12-10T10:00:00.387Z,-435.10
2018-12-10T10:01:00.496Z,-435.92
2018-12-10T10:02:00.611Z,-435.25
2018-12-10T10:03:00.588Z,-436.97
2018-12-10T10:04:00.648Z,-437.21
2018-12-10T10:05:00.716Z,-440.15
2018-12-10T10:06:00.807Z,-435.70
2018-12-10T10:07:00.845Z,-435.51
2018-12-10T10:08:00.903Z,-435.85
2018-12-10T10:09:00.976Z,-438.07
2018-12-10T10:10:01.398Z,-437.15
2018-12-10T10:11:01.081Z,-434.27
2018-12-10T10:12:01.127Z,-432.81
2018-12-10T10:13:01.183Z,-433.44
2018-12-10T10:14:01.246Z,-430.36
2018-12-10T10:15:01.330Z,-431.68
2018-12-10T10:16:01.385Z,-430.56
2018-12-10T10:17:01.443Z,-432.76
2018-12-10T10:18:01.584Z,-431.34
2018-12-10T10:19:01.517Z,-431.61
2018-12-10T10:20:01.606Z,-430.11
2018-12-10T10:21:01.683Z,-434.48
2018-12-10T10:22:01.705Z,-432.34
2018-12-10T10:23:01.784Z,-430.97
2018-12-10T10:24:01.842Z,-441.62
2018-12-10T10:25:01.903Z,-439.36
2018-12-10T10:26:01.994Z,-438.49
2018-12-10T10:27:01.985Z,-437.60
2018-12-10T10:28:02.084Z,-430.14
2018-12-10T10:29:02.096Z,-430.12
2018-12-10T10:30:02.169Z,-427.95
2018-12-10T10:31:02.236Z,-429.84
2018-12-10T10:32:02.305Z,-432.65
2018-12-10T10:33:02.370Z,-432.90
2018-12-10T10:34:02.467Z,-433.11
2018-12-10T10:35:02.576Z,-433.74
2018-12-10T10:36:02.580Z,-435.91
2018-12-10T10:37:02.587Z,-433.07
2018-12-10T10:38:02.669Z,-431.51
2018-12-10T10:39:03.371Z,-431.32
2018-12-10T10:40:04.532Z,-431.66
2018-12-10T10:41:02.867Z,-431.05
2018-12-10T10:42:02.917Z,-428.89
2018-12-10T10:43:03.125Z,-430.85
2018-12-10T10:44:03.045Z,-434.67
2018-12-10T10:45:03.496Z,-431.79
2018-12-10T10:46:03.158Z,-433.57
2018-12-10T10:47:03.871Z,-433.49
2018-12-10T10:48:03.273Z,-435.58
2018-12-10T10:49:03.309Z,-434.98
2018-12-10T10:50:03.389Z,-431.84
2018-12-10T10:51:03.586Z,-430.95
2018-12-10T10:52:03.495Z,-430.98
2018-12-10T10:53:03.574Z,-435.54
2018-12-10T10:54:03.606Z,-434.08
2018-12-10T10:55:03.718Z,-434.00
2018-12-10T10:56:03.756Z,-435.75
2018-12-10T10:57:03.792Z,-434.15
2018-12-10T10:58:03.859Z,-433.27
2018-12-10T10:59:03.961Z,-430.99
2018-12-10T11:00:03.982Z,-431.68
2018-12-10T11:01:04.048Z,-434.58
2018-12-10T11:02:04.093Z,-434.04
2018-12-10T11:03:04.189Z,-436.91
2018-12-10T11:04:04.243Z,-436.56
2018-12-10T11:05:04.304Z,-436.20
2018-12-10T11:06:04.375Z,-434.78
2018-12-10T11:07:04.435Z,-437.60
2018-12-10T11:08:04.459Z,-434.43
2018-12-10T11:09:04.508Z,-435.59
2018-12-10T11:10:04.612Z,-434.93
2018-12-10T11:11:05.376Z,-433.99
2018-12-10T11:12:04.687Z,-433.57
2018-12-10T11:13:04.754Z,-431.64
2018-12-10T11:14:04.810Z,-433.52
2018-12-10T11:15:04.936Z,-436.53
2018-12-10T11:16:05.083Z,-434.57
2018-12-10T11:17:04.979Z,-431.03
2018-12-10T11:18:05.077Z,-434.03
2018-12-10T11:19:05.100Z,-434.69
2018-12-10T11:20:05.188Z,-432.77
2018-12-10T11:21:05.476Z,-432.88
2018-12-10T11:22:05.279Z,-434.06
2018-12-10T11:23:05.876Z,-431.33
2018-12-10T11:24:05.667Z,-430.83
2018-12-10T11:25:05.389Z,-428.81
2018-12-10T11:26:05.438Z,-436.36
2018-12-10T11:27:05.476Z,-432.64
2018-12-10T11:28:05.530Z,-432.56
2018-12-10T11:30:17.933Z,-353.70
2018-12-10T11:31:17.952Z,-431.00
2018-12-10T11:32:18.022Z,-432.22
2018-12-10T11:33:18.079Z,-430.09
2018-12-10T11:34:18.115Z,-429.85
2018-12-10T11:35:18.212Z,-436.94
2018-12-10T11:36:18.242Z,-432.10
2018-12-10T11:37:18.284Z,-435.12
2018-12-10T11:38:18.379Z,-433.28
2018-12-10T11:39:18.382Z,-428.72
2018-12-10T11:40:18.483Z,-432.81
2018-12-10T11:41:19.264Z,-432.86
2018-12-10T11:42:18.572Z,-428.63
2018-12-10T11:43:18.613Z,-432.44
2018-12-10T11:44:18.689Z,-429.44
2018-12-10T11:45:18.766Z,-431.88
2018-12-10T11:46:18.825Z,-431.50
2018-12-10T11:47:18.845Z,-433.45
2018-12-10T11:48:18.879Z,-430.81
2018-12-10T11:49:18.957Z,-428.08
2018-12-10T11:50:19.113Z,-428.91
2018-12-10T11:51:19.069Z,-428.98
2018-12-10T11:52:19.121Z,-428.67
2018-12-10T11:53:19.190Z,-427.90
2018-12-10T11:54:19.320Z,-426.47
2018-12-10T11:55:19.299Z,-433.66
2018-12-10T11:56:19.362Z,-426.70
2018-12-10T11:57:19.403Z,-430.02
2018-12-10T11:58:19.455Z,-429.93
2018-12-10T11:59:19.527Z,-428.80
2018-12-10T12:00:19.591Z,-430.34
2018-12-10T12:01:19.615Z,-434.04
2018-12-10T12:02:19.702Z,-431.37
2018-12-10T12:03:19.728Z,-430.27
2018-12-10T12:04:19.807Z,-428.03
2018-12-10T12:05:19.895Z,-427.25
2018-12-10T12:06:19.916Z,-430.18
2018-12-10T12:07:19.976Z,-432.86